createdAt,value
2019-05-22T00:01:44.054Z,0.70
2019-05-22T00:04:32.442Z,0.60
2019-05-22T00:07:05.819Z,0.42
2019-05-22T00:09:37.618Z,0.50
2019-05-22T00:12:09.360Z,0.40
2019-05-22T00:14:38.358Z,0.40
2019-05-22T00:17:09.728Z,0.40
2019-05-22T00:19:38.303Z,0.40
2019-05-22T00:22:14.233Z,0.50
2019-05-22T00:24:46.306Z,0.60
2019-05-22T00:27:16.974Z,0.60
2019-05-22T00:29:47.184Z,0.50
2019-05-22T00:32:17.381Z,1.02
2019-05-22T00:34:47.021Z,0.60
2019-05-22T00:37:17.153Z,0.70
2019-05-22T00:39:47.967Z,0.80
2019-05-22T00:42:18.540Z,0.70
2019-05-22T00:44:48.462Z,0.60
2019-05-22T00:47:17.855Z,0.93
2019-05-22T00:49:50.060Z,1.22
2019-05-22T00:52:23.268Z,1.00
2019-05-22T00:55:07.399Z,1.50
2019-05-22T00:57:38.202Z,1.27
2019-05-22T01:00:24.251Z,1.07
2019-05-22T01:02:55.089Z,1.00
2019-05-22T01:05:23.964Z,1.00
2019-05-22T01:07:52.724Z,1.17
2019-05-22T01:10:22.941Z,1.30
2019-05-22T01:12:56.267Z,1.02
2019-05-22T01:15:26.458Z,1.17
2019-05-22T01:17:56.591Z,0.90
2019-05-22T01:20:26.863Z,1.55
2019-05-22T01:22:58.122Z,1.50
2019-05-22T01:25:28.352Z,1.40
2019-05-22T01:27:58.158Z,1.55
2019-05-22T01:30:28.514Z,1.45
2019-05-22T01:33:06.200Z,1.12
2019-05-22T01:35:37.233Z,1.20
2019-05-22T01:38:07.065Z,1.32
2019-05-22T01:40:49.060Z,1.77
2019-05-22T01:43:19.317Z,1.20
2019-05-22T01:45:54.104Z,1.70
2019-05-22T01:48:29.854Z,2.12
2019-05-22T01:50:58.471Z,2.00
2019-05-22T01:53:29.419Z,1.72
2019-05-22T01:56:03.191Z,2.40
2019-05-22T01:58:31.948Z,2.65
2019-05-22T02:01:02.545Z,2.65
2019-05-22T02:03:32.356Z,3.52
2019-05-22T02:06:01.517Z,2.67
2019-05-22T02:08:32.320Z,3.20
2019-05-22T02:11:01.709Z,2.90
2019-05-22T02:13:37.671Z,3.08
2019-05-22T02:16:08.439Z,2.87
2019-05-22T02:18:38.637Z,2.95
2019-05-22T02:21:07.577Z,3.45
2019-05-22T02:23:38.173Z,3.50
2019-05-22T02:26:09.635Z,2.60
2019-05-22T02:28:39.013Z,2.12
2019-05-22T02:31:07.656Z,1.62
2019-05-22T02:33:38.719Z,1.95
2019-05-22T02:36:08.041Z,1.82
2019-05-22T02:38:37.386Z,2.20
2019-05-22T02:41:08.392Z,1.62
2019-05-22T02:43:37.338Z,1.75
2019-05-22T02:46:07.651Z,2.65
2019-05-22T02:48:37.177Z,1.90
2019-05-22T02:51:06.061Z,3.42
2019-05-22T02:53:34.787Z,3.60
2019-05-22T02:56:04.028Z,4.58
2019-05-22T02:58:34.773Z,3.65
2019-05-22T03:01:05.583Z,3.33
2019-05-22T03:03:35.377Z,3.10
2019-05-22T03:06:06.954Z,3.95
2019-05-22T03:08:58.347Z,5.20
2019-05-22T03:11:39.727Z,4.03
2019-05-22T03:14:09.388Z,3.47
2019-05-22T03:16:56.480Z,2.70
2019-05-22T03:19:34.167Z,2.62
2019-05-22T03:22:21.340Z,2.20
2019-05-22T03:24:51.529Z,1.80
2019-05-22T03:27:25.675Z,3.35
2019-05-22T03:29:56.680Z,3.30
2019-05-22T03:32:25.443Z,2.17
2019-05-22T03:34:55.040Z,2.02
2019-05-22T03:37:25.096Z,2.15
2019-05-22T03:39:53.764Z,2.00
2019-05-22T03:42:22.848Z,1.47
2019-05-22T03:44:53.642Z,1.77
2019-05-22T03:47:23.570Z,1.20
2019-05-22T03:49:53.102Z,0.98
2019-05-22T03:52:21.834Z,0.70
2019-05-22T03:54:51.114Z,0.98
2019-05-22T03:57:21.443Z,1.30
2019-05-22T03:59:50.582Z,2.37
2019-05-22T04:02:20.123Z,1.07
2019-05-22T04:04:49.492Z,2.55
2019-05-22T04:07:19.792Z,1.00
2019-05-22T04:09:49.515Z,2.77
2019-05-22T04:12:18.598Z,2.27
2019-05-22T04:14:47.163Z,1.12
2019-05-22T04:17:16.707Z,2.20
2019-05-22T04:19:51.081Z,2.17
2019-05-22T04:22:18.999Z,1.80
2019-05-22T04:24:47.797Z,2.00
2019-05-22T04:27:16.523Z,2.08
2019-05-22T04:29:45.219Z,3.27
2019-05-22T04:32:15.497Z,2.40
2019-05-22T04:34:45.041Z,3.02
2019-05-22T04:37:13.952Z,3.62
2019-05-22T04:39:45.448Z,3.25
2019-05-22T04:42:14.696Z,2.50
2019-05-22T04:45:03.307Z,2.40
2019-05-22T04:47:34.871Z,2.75
2019-05-22T04:50:07.932Z,2.40
2019-05-22T04:52:36.509Z,2.33
2019-05-22T04:55:10.636Z,2.40
2019-05-22T04:57:39.667Z,2.20
2019-05-22T05:00:11.682Z,2.50
2019-05-22T05:02:40.933Z,2.50
2019-05-22T05:05:12.538Z,3.20
2019-05-22T05:07:41.724Z,3.20
2019-05-22T05:10:10.888Z,3.50
2019-05-22T05:12:41.086Z,4.45
2019-05-22T05:15:10.058Z,2.87
2019-05-22T05:17:39.501Z,3.77
2019-05-22T05:20:21.582Z,3.62
2019-05-22T05:22:45.433Z,2.60
2019-05-22T05:25:19.146Z,2.65
2019-05-22T05:27:48.144Z,1.72
2019-05-22T05:30:19.710Z,2.17
2019-05-22T05:32:48.450Z,2.47
2019-05-22T05:35:20.171Z,1.57
2019-05-22T05:37:49.834Z,0.70
2019-05-22T05:40:27.799Z,0.82
2019-05-22T05:42:57.350Z,1.10
2019-05-22T05:45:27.574Z,1.75
2019-05-22T05:47:57.799Z,1.77
2019-05-22T05:50:38.943Z,1.45
2019-05-22T05:52:59.995Z,1.30
2019-05-22T05:55:30.746Z,2.17
2019-05-22T05:58:15.296Z,2.47
2019-05-22T06:00:51.866Z,2.30
2019-05-22T06:03:32.279Z,1.82
2019-05-22T06:06:21.674Z,1.50
2019-05-22T06:08:50.275Z,1.30
2019-05-22T06:11:53.267Z,1.07
2019-05-22T06:14:25.811Z,1.12
2019-05-22T06:17:20.291Z,1.22
2019-05-22T06:19:57.584Z,2.27
2019-05-22T06:22:26.134Z,1.67
2019-05-22T06:24:58.306Z,1.82
2019-05-22T06:27:44.193Z,1.45
2019-05-22T06:30:21.805Z,3.10
2019-05-22T06:33:12.154Z,1.20
2019-05-22T06:35:40.991Z,1.00
2019-05-22T06:38:21.761Z,1.27
2019-05-22T06:40:51.518Z,0.70
2019-05-22T06:43:23.981Z,0.70
2019-05-22T06:45:54.807Z,1.20
2019-05-22T06:48:23.776Z,1.00
2019-05-22T06:50:55.311Z,0.70
2019-05-22T06:53:24.200Z,0.78
2019-05-22T06:55:52.827Z,0.50
2019-05-22T06:58:21.856Z,0.53
2019-05-22T07:00:50.821Z,0.68
2019-05-22T07:03:20.642Z,0.60
2019-05-22T07:05:50.240Z,0.50
2019-05-22T07:08:19.771Z,0.50
2019-05-22T07:10:48.916Z,0.40
2019-05-22T07:13:18.291Z,1.00
2019-05-22T07:15:48.764Z,0.50
2019-05-22T07:18:18.045Z,0.90
2019-05-22T07:20:48.877Z,1.30
2019-05-22T07:23:20.665Z,1.10
2019-05-22T07:25:51.138Z,1.00
2019-05-22T07:28:20.672Z,1.20
2019-05-22T07:30:50.981Z,1.35
2019-05-22T07:33:21.012Z,1.07
2019-05-22T07:36:08.625Z,1.25
2019-05-22T07:38:21.280Z,0.88
2019-05-22T07:40:51.570Z,0.70
2019-05-22T07:43:22.069Z,0.70
2019-05-22T07:45:51.774Z,0.85
2019-05-22T07:48:21.754Z,0.70
2019-05-22T07:50:52.105Z,0.80
2019-05-22T07:53:21.018Z,1.10
2019-05-22T07:55:51.764Z,0.80
2019-05-22T07:58:20.904Z,0.70
2019-05-22T08:00:55.035Z,0.80
2019-05-22T08:03:23.425Z,0.85
2019-05-22T08:05:54.899Z,0.60
2019-05-22T08:08:25.056Z,0.60
2019-05-22T08:10:55.973Z,0.60
2019-05-22T08:13:26.477Z,0.60
2019-05-22T08:15:55.365Z,0.70
2019-05-22T08:18:25.183Z,0.50
2019-05-22T08:20:53.821Z,0.60
2019-05-22T08:23:23.275Z,0.40
2019-05-22T08:25:52.114Z,0.30
2019-05-22T08:28:21.225Z,0.30
2019-05-22T08:30:50.356Z,0.40
2019-05-22T08:33:20.864Z,0.40
2019-05-22T08:35:49.654Z,0.20
2019-05-22T08:38:19.786Z,0.25
2019-05-22T08:40:49.294Z,0.20
2019-05-22T08:43:18.839Z,0.30
2019-05-22T08:45:47.894Z,0.30
2019-05-22T08:48:17.535Z,0.30
2019-05-22T08:50:46.571Z,0.20
2019-05-22T08:53:16.122Z,0.20
2019-05-22T08:55:45.829Z,0.50
2019-05-22T08:58:16.318Z,0.30
2019-05-22T09:00:45.916Z,0.20
2019-05-22T09:03:15.531Z,0.30
2019-05-22T09:05:44.339Z,0.30
2019-05-22T09:08:13.015Z,0.30
2019-05-22T09:10:41.946Z,0.30
2019-05-22T09:13:10.548Z,0.20
2019-05-22T09:15:40.985Z,0.30
2019-05-22T09:18:10.214Z,0.30
2019-05-22T09:20:49.327Z,0.40
2019-05-22T09:23:11.604Z,0.40
2019-05-22T09:25:40.234Z,0.20
2019-05-22T09:28:09.150Z,0.20
2019-05-22T09:30:38.010Z,1.25
2019-05-22T09:33:08.392Z,0.30
2019-05-22T09:35:37.180Z,0.20
2019-05-22T09:38:05.870Z,0.10
2019-05-22T09:40:34.875Z,0.20
2019-05-22T09:43:05.182Z,0.20
2019-05-22T09:45:35.832Z,0.25
2019-05-22T09:48:05.760Z,0.10
2019-05-22T09:50:34.968Z,0.20
2019-05-22T09:53:05.315Z,0.30
2019-05-22T09:55:33.975Z,0.10
2019-05-22T09:58:02.614Z,0.20
2019-05-22T10:00:31.865Z,0.20
2019-05-22T10:03:00.978Z,0.20
2019-05-22T10:05:30.821Z,0.30
2019-05-22T10:08:01.898Z,0.30
2019-05-22T10:10:31.265Z,0.20
2019-05-22T10:13:00.381Z,0.10
2019-05-22T10:15:31.185Z,0.10
2019-05-22T10:18:00.232Z,0.10
2019-05-22T10:20:29.077Z,0.10
2019-05-22T10:23:14.075Z,0.15
2019-05-22T10:25:29.045Z,0.10
2019-05-22T10:27:59.437Z,0.10
2019-05-22T10:30:28.610Z,0.10
2019-05-22T10:32:57.263Z,0.10
2019-05-22T10:35:27.601Z,0.20
2019-05-22T10:37:56.842Z,0.10
2019-05-22T10:40:26.549Z,0.10
2019-05-22T10:42:56.335Z,0.20
2019-05-22T10:45:26.062Z,0.10
2019-05-22T10:47:54.747Z,0.10
2019-05-22T10:50:24.341Z,0.10
2019-05-22T10:52:54.894Z,0.00
2019-05-22T10:55:23.913Z,0.17
2019-05-22T10:57:52.754Z,0.20
2019-05-22T11:00:23.386Z,0.10
2019-05-22T11:02:52.335Z,0.10
2019-05-22T11:05:22.087Z,0.10
2019-05-22T11:07:52.357Z,0.10
2019-05-22T11:10:24.409Z,0.10
2019-05-22T11:12:53.938Z,0.40
2019-05-22T11:15:23.681Z,0.28
2019-05-22T11:17:52.998Z,0.20
2019-05-22T11:20:22.762Z,0.20
2019-05-22T11:22:51.469Z,0.10
2019-05-22T11:25:20.407Z,0.20
2019-05-22T11:27:49.234Z,0.10
2019-05-22T11:30:19.456Z,0.10
2019-05-22T11:32:48.743Z,0.10
2019-05-22T11:35:18.322Z,0.10
2019-05-22T11:37:47.927Z,0.10
2019-05-22T11:40:18.025Z,0.10
2019-05-22T11:42:46.830Z,0.00
2019-05-22T11:45:16.942Z,0.10
2019-05-22T11:47:45.766Z,0.10
2019-05-22T11:50:16.426Z,0.17
2019-05-22T11:52:46.626Z,0.10
2019-05-22T11:55:16.132Z,0.10
2019-05-22T11:57:46.228Z,0.03
2019-05-22T12:00:16.452Z,0.10
2019-05-22T12:02:46.607Z,0.15
2019-05-22T12:05:16.320Z,0.00
2019-05-22T12:07:46.228Z,0.10
2019-05-22T12:10:15.736Z,0.10
2019-05-22T12:12:45.382Z,0.08
2019-05-22T12:15:14.988Z,0.00
2019-05-22T12:17:45.036Z,0.15
2019-05-22T12:20:16.746Z,0.20
2019-05-22T12:22:45.535Z,0.10
2019-05-22T12:25:14.711Z,0.10
2019-05-22T12:27:43.448Z,0.20
2019-05-22T12:30:14.591Z,0.10
2019-05-22T12:32:43.545Z,0.10
2019-05-22T12:35:15.107Z,0.20
2019-05-22T12:37:44.302Z,0.10
2019-05-22T12:40:16.280Z,0.00
2019-05-22T12:42:45.475Z,0.10
2019-05-22T12:45:17.085Z,0.20
2019-05-22T12:47:46.735Z,0.10
2019-05-22T12:50:17.077Z,0.20
2019-05-22T12:52:48.744Z,0.20
2019-05-22T12:55:18.561Z,0.10
2019-05-22T12:57:49.174Z,0.10
2019-05-22T13:00:21.628Z,0.30
2019-05-22T13:02:51.246Z,0.10
2019-05-22T13:05:20.713Z,0.10
2019-05-22T13:07:49.717Z,0.10
2019-05-22T13:10:19.798Z,0.10
2019-05-22T13:12:48.655Z,0.10
2019-05-22T13:15:17.641Z,0.10
2019-05-22T13:17:46.873Z,0.00
2019-05-22T13:20:40.547Z,0.10
2019-05-22T13:22:54.046Z,0.20
2019-05-22T13:25:26.313Z,0.10
2019-05-22T13:27:55.225Z,0.08
2019-05-22T13:30:28.478Z,0.03
2019-05-22T13:32:57.060Z,0.00
2019-05-22T13:35:26.822Z,0.10
2019-05-22T13:37:58.111Z,0.20
2019-05-22T13:40:29.833Z,0.00
2019-05-22T13:42:59.452Z,0.00
2019-05-22T13:45:30.338Z,0.00
2019-05-22T13:48:00.106Z,0.10
2019-05-22T13:50:29.416Z,0.10
2019-05-22T13:53:00.754Z,0.17
2019-05-22T13:55:30.335Z,0.10
2019-05-22T13:58:00.215Z,0.00
2019-05-22T14:00:29.595Z,0.10
2019-05-22T14:02:58.753Z,0.10
2019-05-22T14:05:29.491Z,0.08
2019-05-22T14:07:58.280Z,0.10
2019-05-22T14:10:28.895Z,0.00
2019-05-22T14:12:57.811Z,0.30
2019-05-22T14:15:26.854Z,0.10
2019-05-22T14:17:55.690Z,0.10
2019-05-22T14:20:24.722Z,0.10
2019-05-22T14:22:54.005Z,0.10
2019-05-22T14:25:24.246Z,0.00
2019-05-22T14:27:53.052Z,0.00
2019-05-22T14:30:24.248Z,0.00
2019-05-22T14:32:52.915Z,0.03
2019-05-22T14:35:23.587Z,0.05
2019-05-22T14:37:52.201Z,0.25
2019-05-22T14:40:21.304Z,0.00
2019-05-22T14:42:50.104Z,0.10
2019-05-22T14:45:19.203Z,0.10
2019-05-22T14:47:47.807Z,0.00
2019-05-22T14:50:17.119Z,0.30
2019-05-22T14:52:45.900Z,0.10
2019-05-22T14:55:15.734Z,0.10
2019-05-22T14:57:45.029Z,0.10
2019-05-22T15:00:17.846Z,0.10
2019-05-22T15:02:53.428Z,0.10
2019-05-22T15:05:17.785Z,0.20
2019-05-22T15:07:46.451Z,0.10
2019-05-22T15:10:17.001Z,0.10
2019-05-22T15:12:46.223Z,0.40
2019-05-22T15:15:15.976Z,0.20
2019-05-22T15:17:44.978Z,0.10
2019-05-22T15:20:20.788Z,0.10
2019-05-22T15:22:50.067Z,0.10
2019-05-22T15:25:19.076Z,0.10
2019-05-22T15:27:47.808Z,0.10
2019-05-22T15:30:16.984Z,0.30
2019-05-22T15:32:45.540Z,0.50
2019-05-22T15:35:14.481Z,0.10
2019-05-22T15:37:43.735Z,0.37
2019-05-22T15:40:12.653Z,0.80
2019-05-22T15:42:45.557Z,0.40
2019-05-22T15:45:17.673Z,0.10
2019-05-22T15:47:55.542Z,0.65
2019-05-22T15:50:23.839Z,0.37
2019-05-22T15:52:58.253Z,2.70
2019-05-22T15:55:31.276Z,1.30
2019-05-22T15:58:00.754Z,0.30
2019-05-22T16:00:34.654Z,0.30
2019-05-22T16:03:12.716Z,0.50
2019-05-22T16:05:42.331Z,0.30
2019-05-22T16:08:11.709Z,0.30
2019-05-22T16:10:43.348Z,0.35
2019-05-22T16:13:14.854Z,0.50
2019-05-22T16:15:45.301Z,0.70
2019-05-22T16:18:16.238Z,1.52
2019-05-22T16:20:45.371Z,3.12
2019-05-22T16:23:14.463Z,1.45
2019-05-22T16:25:43.137Z,0.20
2019-05-22T16:28:14.026Z,0.20
2019-05-22T16:30:43.832Z,0.28
2019-05-22T16:33:13.973Z,0.40
2019-05-22T16:35:42.604Z,0.50
2019-05-22T16:38:11.548Z,0.53
2019-05-22T16:40:41.399Z,0.60
2019-05-22T16:43:10.180Z,0.30
2019-05-22T16:45:39.314Z,0.60
2019-05-22T16:48:26.097Z,0.30
2019-05-22T16:50:42.062Z,0.20
2019-05-22T16:53:13.164Z,0.20
2019-05-22T16:55:42.650Z,0.40
2019-05-22T16:58:12.950Z,0.30
2019-05-22T17:00:44.259Z,0.50
2019-05-22T17:03:16.223Z,0.60
2019-05-22T17:05:45.246Z,0.60
2019-05-22T17:08:15.085Z,0.90
2019-05-22T17:10:43.857Z,0.70
2019-05-22T17:13:14.815Z,0.80
2019-05-22T17:15:44.126Z,0.50
2019-05-22T17:18:15.483Z,0.80
2019-05-22T17:20:44.871Z,0.60
2019-05-22T17:23:13.763Z,1.10
2019-05-22T17:25:43.358Z,0.70
2019-05-22T17:28:12.656Z,0.70
2019-05-22T17:30:42.164Z,0.60
2019-05-22T17:33:12.215Z,0.60
2019-05-22T17:35:42.112Z,0.65
2019-05-22T17:38:11.141Z,0.70
2019-05-22T17:40:41.487Z,0.50
2019-05-22T17:43:11.026Z,0.45
2019-05-22T17:45:42.855Z,0.50
2019-05-22T17:48:14.607Z,0.60
2019-05-22T17:50:44.654Z,0.70
2019-05-22T17:53:14.035Z,0.93
2019-05-22T17:55:43.504Z,0.90
2019-05-22T17:58:12.636Z,0.50
2019-05-22T18:00:43.423Z,0.50
2019-05-22T18:03:12.304Z,0.78
2019-05-22T18:05:41.173Z,0.70
2019-05-22T18:08:10.819Z,0.70
2019-05-22T18:10:41.733Z,0.80
2019-05-22T18:13:12.173Z,0.93
2019-05-22T18:15:41.898Z,1.65
2019-05-22T18:18:11.417Z,5.80
2019-05-22T18:20:43.782Z,6.30
2019-05-22T18:23:11.202Z,3.70
2019-05-22T18:25:39.912Z,2.58
2019-05-22T18:28:09.859Z,2.75
2019-05-22T18:30:40.556Z,2.15
2019-05-22T18:33:09.111Z,0.50
2019-05-22T18:35:38.010Z,0.20
2019-05-22T18:38:06.793Z,0.20
2019-05-22T18:40:35.515Z,0.10
2019-05-22T18:43:04.360Z,0.20
2019-05-22T18:45:34.668Z,0.15
2019-05-22T18:48:03.444Z,0.10
2019-05-22T18:50:32.922Z,0.13
2019-05-22T18:53:01.979Z,0.20
2019-05-22T18:55:30.571Z,0.30
2019-05-22T18:57:59.410Z,0.30
2019-05-22T19:00:29.819Z,0.40
2019-05-22T19:02:58.935Z,0.53
2019-05-22T19:05:30.628Z,0.40
2019-05-22T19:07:59.331Z,0.40
2019-05-22T19:10:28.682Z,0.20
2019-05-22T19:12:57.795Z,0.20
2019-05-22T19:15:27.065Z,0.40
2019-05-22T19:17:55.607Z,0.40
2019-05-22T19:20:24.532Z,0.60
2019-05-22T19:23:00.534Z,0.60
2019-05-22T19:25:24.559Z,0.53
2019-05-22T19:27:53.391Z,0.53
2019-05-22T19:30:22.438Z,0.60
2019-05-22T19:32:51.761Z,0.70
2019-05-22T19:35:20.592Z,0.68
2019-05-22T19:37:50.245Z,0.78
2019-05-22T19:40:19.779Z,0.60
2019-05-22T19:42:48.797Z,0.60
2019-05-22T19:45:18.951Z,1.52
2019-05-22T19:47:52.892Z,1.82
2019-05-22T19:50:23.917Z,2.00
2019-05-22T19:52:53.494Z,2.42
2019-05-22T19:55:23.293Z,1.98
2019-05-22T19:57:52.854Z,1.10
2019-05-22T20:00:22.987Z,0.70
2019-05-22T20:02:51.622Z,0.60
2019-05-22T20:05:22.974Z,0.60
2019-05-22T20:07:52.157Z,0.98
2019-05-22T20:10:21.867Z,0.50
2019-05-22T20:12:50.880Z,0.50
2019-05-22T20:15:21.695Z,0.50
2019-05-22T20:17:50.528Z,0.40
2019-05-22T20:20:20.074Z,0.40
2019-05-22T20:22:49.802Z,0.50
2019-05-22T20:25:20.502Z,0.50
2019-05-22T20:27:49.375Z,0.50
2019-05-22T20:30:20.249Z,0.53
2019-05-22T20:32:49.425Z,0.60
2019-05-22T20:35:18.889Z,1.10
2019-05-22T20:37:48.098Z,1.20
2019-05-22T20:40:20.363Z,0.80
2019-05-22T20:42:49.172Z,0.80
2019-05-22T20:45:21.097Z,0.80
2019-05-22T20:47:54.401Z,1.10
2019-05-22T20:50:24.601Z,1.07
2019-05-22T20:52:53.544Z,1.10
2019-05-22T20:55:22.646Z,0.80
2019-05-22T20:57:53.048Z,1.00
2019-05-22T21:00:23.586Z,0.50
2019-05-22T21:02:55.337Z,0.60
2019-05-22T21:05:24.366Z,0.53
2019-05-22T21:07:55.899Z,0.60
2019-05-22T21:10:25.554Z,0.53
2019-05-22T21:12:55.662Z,0.50
2019-05-22T21:15:24.575Z,0.42
2019-05-22T21:17:54.883Z,0.50
2019-05-22T21:20:25.149Z,0.47
2019-05-22T21:22:54.017Z,0.90
2019-05-22T21:25:23.456Z,0.70
2019-05-22T21:27:52.190Z,0.50
2019-05-22T21:30:21.386Z,0.50
2019-05-22T21:32:50.487Z,0.40
2019-05-22T21:35:19.846Z,0.40
2019-05-22T21:37:48.550Z,0.50
2019-05-22T21:40:20.289Z,0.50
2019-05-22T21:42:51.251Z,0.50
2019-05-22T21:45:20.702Z,0.40
2019-05-22T21:47:49.693Z,0.40
2019-05-22T21:50:20.489Z,5.17
2019-05-22T21:52:49.081Z,3.33
2019-05-22T21:55:19.336Z,3.22
2019-05-22T21:57:47.965Z,3.02
2019-05-22T22:00:41.718Z,2.67
2019-05-22T22:03:19.273Z,2.47
2019-05-22T22:05:48.246Z,2.77
2019-05-22T22:08:16.919Z,1.50
2019-05-22T22:10:46.324Z,1.60
2019-05-22T22:13:15.086Z,1.60
2019-05-22T22:15:44.440Z,1.50
2019-05-22T22:18:13.211Z,1.25
2019-05-22T22:20:42.880Z,1.40
2019-05-22T22:23:13.407Z,1.75
2019-05-22T22:25:42.751Z,1.75
2019-05-22T22:28:13.554Z,1.80
2019-05-22T22:30:46.777Z,2.30
2019-05-22T22:33:17.797Z,1.42
2019-05-22T22:35:47.374Z,1.50
2019-05-22T22:38:16.035Z,2.10
2019-05-22T22:40:45.070Z,2.20
2019-05-22T22:43:14.275Z,1.85
2019-05-22T22:45:47.791Z,1.10
2019-05-22T22:48:33.112Z,1.02
2019-05-22T22:51:04.057Z,1.22
2019-05-22T22:53:32.665Z,0.70
2019-05-22T22:56:01.544Z,0.60
2019-05-22T22:58:30.755Z,0.50
2019-05-22T23:01:00.258Z,0.50
2019-05-22T23:03:30.079Z,0.40
2019-05-22T23:05:59.428Z,0.50
2019-05-22T23:08:33.102Z,0.40
2019-05-22T23:11:01.730Z,0.40
2019-05-22T23:13:30.840Z,0.40
2019-05-22T23:16:00.342Z,0.40
2019-05-22T23:18:45.378Z,0.37
2019-05-22T23:21:16.826Z,0.40
2019-05-22T23:23:44.229Z,0.30
2019-05-22T23:26:13.279Z,0.30
2019-05-22T23:28:42.902Z,0.30
2019-05-22T23:31:12.600Z,0.40
2019-05-22T23:33:42.959Z,0.30
2019-05-22T23:36:13.581Z,0.40
2019-05-22T23:38:43.080Z,0.40
2019-05-22T23:41:13.972Z,0.40
2019-05-22T23:43:44.838Z,0.50
2019-05-22T23:46:14.889Z,0.40
2019-05-22T23:48:43.935Z,0.40
2019-05-22T23:51:12.871Z,0.40
2019-05-22T23:53:42.804Z,0.40
2019-05-22T23:56:11.746Z,0.40
2019-05-22T23:58:52.356Z,0.30
